Hlavní strana
METAR-TAF:

METAR-TAF

Letiště :

Wakefield Municipal Airport

Wakefield, Virginie, Spojené státy americké

zeměpisná šířka: 36-58-53N, zeměpisná délka: 077-00-04W, výška: 34 m

Aktuální stav počasí

Zpráva byla vytvořena před 56 minutami, v 07:54 UTC
vítr z různých směrů 4 kt
Teplota 23°C
Vlhkost vzduchu 94%
Tlak 1018 hPa
Viditelnost: 12.9 km
Zataženo ve výšce 700 ft

METAR: KAKQ 280754Z AUTO VRB04KT 8SM OVC007 23/22 A3007 RMK AO2 RAE45 CIG 005V010 SLP182 P0000 T02280217

Čas: 04:50 (08:50 UTC)


TAF: chybějící

Stav a předpovědi počasí z více než 4 000 letišť (zprávy METAR a TAF).

Červené a žluté tečky na mapě představují dostupné meteorologické stanice.

Když kurzor umístíte na tečku, zobrazí se název stanice.

Pak kliknutím zobrazíte stav a předpověď počasí.

Chcete-li změnit mapu, kliknutím na zelené tlačítko se znaménkem +mapu přiblížíte, kliknutím na zelené tlačítko se znaménkem – mapu oddálíte a kliknutím na zelené šipky přejdete na sousední mapy.


METAR-TAF: